createdAt,value
2018-08-04T00:00:22.462Z,78.91
2018-08-04T00:02:51.954Z,78.65
2018-08-04T00:05:19.605Z,78.16
2018-08-04T00:07:52.476Z,76.52
2018-08-04T00:10:21.092Z,76.21
2018-08-04T00:12:52.282Z,76.35
2018-08-04T00:15:20.425Z,77.04
2018-08-04T00:17:49.214Z,76.92
2018-08-04T00:20:17.151Z,79.51
2018-08-04T00:22:46.424Z,78.97
2018-08-04T00:25:15.557Z,79.77
2018-08-04T00:27:43.112Z,80.78
2018-08-04T00:30:13.144Z,79.32
2018-08-04T00:32:41.763Z,79.94
2018-08-04T00:35:10.133Z,78.60
2018-08-04T00:37:37.592Z,78.61
2018-08-04T00:40:05.712Z,80.09
2018-08-04T00:42:32.876Z,81.97
2018-08-04T00:44:59.997Z,82.19
2018-08-04T00:47:27.151Z,81.83
2018-08-04T00:49:54.272Z,80.95
2018-08-04T00:52:21.444Z,80.94
2018-08-04T00:54:48.621Z,80.31
2018-08-04T00:57:15.948Z,79.77
2018-08-04T00:59:43.068Z,80.15
2018-08-04T01:02:10.237Z,79.38
2018-08-04T01:04:37.369Z,79.48
2018-08-04T01:07:04.516Z,79.65
2018-08-04T01:09:31.677Z,78.34
2018-08-04T01:11:58.820Z,78.25
2018-08-04T01:14:25.945Z,78.62
2018-08-04T01:16:53.131Z,78.67
2018-08-04T01:19:20.305Z,81.30
2018-08-04T01:21:47.539Z,82.48
2018-08-04T01:24:14.855Z,82.39
2018-08-04T01:26:42.102Z,81.35
2018-08-04T01:29:09.229Z,80.96
2018-08-04T01:31:36.379Z,80.67
2018-08-04T01:34:03.603Z,79.86
2018-08-04T01:36:30.780Z,78.97
2018-08-04T01:38:57.951Z,78.18
2018-08-04T01:41:25.124Z,78.42
2018-08-04T01:43:52.228Z,78.48
2018-08-04T01:46:19.372Z,81.43
2018-08-04T01:48:46.548Z,82.84
2018-08-04T01:51:13.697Z,81.34
2018-08-04T01:53:40.864Z,81.45
2018-08-04T01:56:07.969Z,84.26
2018-08-04T01:58:35.093Z,83.58
2018-08-04T02:01:02.381Z,82.91
2018-08-04T02:03:29.778Z,81.36
2018-08-04T02:05:56.906Z,80.94
2018-08-04T02:08:24.133Z,80.27
2018-08-04T02:10:51.296Z,80.52
2018-08-04T02:13:18.441Z,80.34
2018-08-04T02:15:45.613Z,80.70
2018-08-04T02:18:12.783Z,83.83
2018-08-04T02:20:40.152Z,86.57
2018-08-04T02:23:07.261Z,86.91
2018-08-04T02:25:34.420Z,87.18
2018-08-04T02:28:01.561Z,88.29
2018-08-04T02:30:28.681Z,87.23
2018-08-04T02:32:55.848Z,84.78
2018-08-04T02:35:22.972Z,83.54
2018-08-04T02:37:50.107Z,82.61
2018-08-04T02:40:17.248Z,82.09
2018-08-04T02:42:44.403Z,81.49
2018-08-04T02:45:11.621Z,84.86
2018-08-04T02:47:38.763Z,85.49
2018-08-04T02:50:06.823Z,87.10
2018-08-04T02:52:34.064Z,84.51
2018-08-04T02:55:01.181Z,84.53
2018-08-04T02:57:28.521Z,83.57
2018-08-04T02:59:55.697Z,82.63
2018-08-04T03:02:23.041Z,82.59
2018-08-04T03:04:50.232Z,82.88
2018-08-04T03:07:17.370Z,83.80
2018-08-04T03:09:44.496Z,83.08
2018-08-04T03:12:11.633Z,82.89
2018-08-04T03:14:38.799Z,82.21
2018-08-04T03:17:06.023Z,83.54
2018-08-04T03:19:33.150Z,84.80
2018-08-04T03:22:00.436Z,86.43
2018-08-04T03:24:27.584Z,84.29
2018-08-04T03:26:54.714Z,86.19
2018-08-04T03:29:21.821Z,86.48
2018-08-04T03:31:49.004Z,84.19
2018-08-04T03:34:16.130Z,83.09
2018-08-04T03:36:50.223Z,83.71
2018-08-04T03:39:17.495Z,84.36
2018-08-04T03:41:44.651Z,83.36
2018-08-04T03:44:11.769Z,82.25
2018-08-04T03:46:38.913Z,82.70
2018-08-04T03:49:06.062Z,81.88
2018-08-04T03:51:33.239Z,82.08
2018-08-04T03:54:00.556Z,81.65
2018-08-04T03:56:27.801Z,80.54
2018-08-04T03:58:54.915Z,83.69
2018-08-04T04:01:22.113Z,85.37
2018-08-04T04:03:49.257Z,85.08
2018-08-04T04:06:16.388Z,85.35
2018-08-04T04:08:43.534Z,84.15
2018-08-04T04:11:10.686Z,85.98
2018-08-04T04:13:37.815Z,86.52
2018-08-04T04:16:05.024Z,85.57
2018-08-04T04:18:32.360Z,85.98
2018-08-04T04:20:59.528Z,84.19
2018-08-04T04:23:26.632Z,83.09
2018-08-04T04:25:53.813Z,82.33
2018-08-04T04:28:20.895Z,83.78
2018-08-04T04:30:54.740Z,85.12
2018-08-04T04:33:21.869Z,86.23
2018-08-04T04:35:49.028Z,86.91
2018-08-04T04:38:16.152Z,85.36
2018-08-04T04:40:43.432Z,83.62
2018-08-04T04:43:10.575Z,82.80
2018-08-04T04:45:37.721Z,82.38
2018-08-04T04:48:04.856Z,82.91
2018-08-04T04:50:31.965Z,84.56
2018-08-04T04:52:59.224Z,83.83
2018-08-04T04:55:26.570Z,82.42
2018-08-04T04:57:53.649Z,82.70
2018-08-04T05:00:21.057Z,81.12
2018-08-04T05:02:51.184Z,81.34
2018-08-04T05:05:18.309Z,83.70
2018-08-04T05:07:45.497Z,84.03
2018-08-04T05:10:12.608Z,83.06
2018-08-04T05:12:39.818Z,83.57
2018-08-04T05:15:07.616Z,83.34
2018-08-04T05:17:34.755Z,81.48
2018-08-04T05:20:01.968Z,81.53
2018-08-04T05:22:29.124Z,82.61
2018-08-04T05:24:56.271Z,82.49
2018-08-04T05:27:23.390Z,82.75
2018-08-04T05:29:50.527Z,81.51
2018-08-04T05:32:17.666Z,81.40
2018-08-04T05:34:51.640Z,80.74
2018-08-04T05:37:18.822Z,80.86
2018-08-04T05:39:45.986Z,79.49
2018-08-04T05:42:15.723Z,80.03
2018-08-04T05:44:42.902Z,80.89
2018-08-04T05:47:10.042Z,80.20
2018-08-04T05:49:37.184Z,79.80
2018-08-04T05:52:04.665Z,78.32
2018-08-04T05:54:31.807Z,77.63
2018-08-04T05:56:58.951Z,77.99
2018-08-04T05:59:26.128Z,76.51
2018-08-04T06:01:53.305Z,76.98
2018-08-04T06:04:20.534Z,75.13
2018-08-04T06:06:47.698Z,75.48
2018-08-04T06:09:14.866Z,74.39
2018-08-04T06:11:42.068Z,73.46
2018-08-04T06:14:09.208Z,73.58
2018-08-04T06:16:36.339Z,75.01
2018-08-04T06:19:03.528Z,74.73
2018-08-04T06:21:30.692Z,74.62
2018-08-04T06:23:57.828Z,75.14
2018-08-04T06:26:24.999Z,76.08
2018-08-04T06:28:52.125Z,76.38
2018-08-04T06:31:19.320Z,76.93
2018-08-04T06:33:46.484Z,77.12
2018-08-04T06:36:13.611Z,76.32
2018-08-04T06:38:40.779Z,77.42
2018-08-04T06:41:07.889Z,77.96
2018-08-04T06:43:35.124Z,78.29
2018-08-04T06:46:02.301Z,76.77
2018-08-04T06:48:29.440Z,77.01
2018-08-04T06:50:56.568Z,75.66
2018-08-04T06:53:23.763Z,75.99
2018-08-04T06:55:50.889Z,76.85
2018-08-04T06:58:18.030Z,76.65
2018-08-04T07:00:45.261Z,77.32
2018-08-04T07:03:12.389Z,77.12
2018-08-04T07:05:39.591Z,76.65
2018-08-04T07:08:06.714Z,74.31
2018-08-04T07:10:34.108Z,73.85
2018-08-04T07:13:01.261Z,76.12
2018-08-04T07:15:28.443Z,75.72
2018-08-04T07:17:55.620Z,72.80
2018-08-04T07:20:22.760Z,71.52
2018-08-04T07:22:49.974Z,69.23
2018-08-04T07:25:17.107Z,70.33
2018-08-04T07:27:44.249Z,70.14
2018-08-04T07:30:12.112Z,71.56
2018-08-04T07:32:39.873Z,70.35
2018-08-04T07:35:07.017Z,70.60
2018-08-04T07:37:34.248Z,70.59
2018-08-04T07:40:01.498Z,69.89
2018-08-04T07:42:28.654Z,70.74
2018-08-04T07:44:55.799Z,72.98
2018-08-04T07:47:22.971Z,73.61
2018-08-04T07:49:50.152Z,73.72
2018-08-04T07:52:17.311Z,73.80
2018-08-04T07:54:44.445Z,71.34
2018-08-04T07:59:55.740Z,68.98
2018-08-04T08:02:22.856Z,65.50
2018-08-04T08:04:50.016Z,64.68
2018-08-04T08:07:20.838Z,63.65
2018-08-04T08:09:50.088Z,63.28
2018-08-04T08:12:17.489Z,63.42
2018-08-04T08:14:44.629Z,63.75
2018-08-04T08:17:11.729Z,63.98
2018-08-04T08:19:38.865Z,62.33
2018-08-04T08:22:06.081Z,61.92
2018-08-04T08:24:33.212Z,60.31
2018-08-04T08:27:00.344Z,59.11
2018-08-04T08:29:27.473Z,60.63
2018-08-04T08:31:54.624Z,60.15
2018-08-04T08:34:21.765Z,59.93
2018-08-04T08:36:48.916Z,57.36
2018-08-04T08:39:16.088Z,59.80
2018-08-04T08:41:43.292Z,59.79
2018-08-04T08:44:10.407Z,60.11
2018-08-04T08:46:37.520Z,60.24
2018-08-04T08:49:04.751Z,59.65
2018-08-04T08:51:31.919Z,58.55
2018-08-04T08:53:59.140Z,59.23
2018-08-04T08:56:26.281Z,59.27
2018-08-04T08:58:53.443Z,59.48
2018-08-04T09:01:20.669Z,59.03
2018-08-04T09:03:47.840Z,59.33
2018-08-04T09:06:14.958Z,59.22
2018-08-04T09:08:42.148Z,59.26
2018-08-04T09:11:09.296Z,59.39
2018-08-04T09:13:36.414Z,58.70
2018-08-04T09:16:03.544Z,59.77
2018-08-04T09:18:30.693Z,58.24
2018-08-04T09:20:57.849Z,58.29
2018-08-04T09:23:24.940Z,59.89
2018-08-04T09:25:52.105Z,57.68
2018-08-04T09:28:19.309Z,60.16
2018-08-04T09:30:46.534Z,59.74
2018-08-04T09:33:13.658Z,60.26
2018-08-04T09:35:40.808Z,59.03
2018-08-04T09:38:07.944Z,56.76
2018-08-04T09:40:35.129Z,56.19
2018-08-04T09:43:02.256Z,56.31
2018-08-04T09:45:29.370Z,55.96
2018-08-04T09:47:56.561Z,57.03
2018-08-04T09:50:23.722Z,57.20
2018-08-04T09:52:50.907Z,56.86
2018-08-04T09:55:18.004Z,56.60
2018-08-04T09:57:45.149Z,54.89
2018-08-04T10:00:18.489Z,54.57
2018-08-04T10:02:45.888Z,53.82
2018-08-04T10:05:13.068Z,55.16
2018-08-04T10:07:40.179Z,55.45
2018-08-04T10:10:07.366Z,54.89
2018-08-04T10:12:34.557Z,52.55
2018-08-04T10:15:02.547Z,51.90
2018-08-04T10:17:29.737Z,53.12
2018-08-04T10:19:56.877Z,51.93
2018-08-04T10:22:24.098Z,51.51
2018-08-04T10:24:51.241Z,50.88
2018-08-04T10:27:18.436Z,50.06
2018-08-04T10:29:45.617Z,49.60
2018-08-04T10:32:13.002Z,48.74
2018-08-04T10:34:39.959Z,49.94
2018-08-04T10:37:07.152Z,49.47
2018-08-04T10:39:34.266Z,49.33
2018-08-04T10:42:01.413Z,49.43
2018-08-04T10:44:28.540Z,49.36
2018-08-04T10:46:55.666Z,48.91
2018-08-04T10:49:22.868Z,47.59
2018-08-04T10:51:50.020Z,46.40
2018-08-04T10:54:17.396Z,45.68
2018-08-04T10:56:44.500Z,44.99
2018-08-04T10:59:11.675Z,44.83
2018-08-04T11:01:38.855Z,44.98
2018-08-04T11:04:06.088Z,43.71
2018-08-04T11:06:33.273Z,43.18
2018-08-04T11:09:00.523Z,43.56
2018-08-04T11:11:27.677Z,41.35
2018-08-04T11:13:54.803Z,41.63
2018-08-04T11:16:21.960Z,40.81
2018-08-04T11:18:49.104Z,42.05
2018-08-04T11:21:16.269Z,41.87
2018-08-04T11:23:43.447Z,42.49
2018-08-04T11:26:10.626Z,41.59
2018-08-04T11:28:37.749Z,40.39
2018-08-04T11:31:04.938Z,41.48
2018-08-04T11:33:32.084Z,40.44
2018-08-04T11:35:59.227Z,40.65
2018-08-04T11:38:26.333Z,38.66
2018-08-04T11:40:53.513Z,39.12
2018-08-04T11:43:20.677Z,36.92
2018-08-04T11:45:47.808Z,36.65
2018-08-04T11:48:14.919Z,37.80
2018-08-04T11:50:42.037Z,38.45
2018-08-04T11:53:09.197Z,37.80
2018-08-04T11:55:36.385Z,37.20
2018-08-04T11:58:03.654Z,38.15
2018-08-04T12:00:30.829Z,36.13
2018-08-04T12:02:57.996Z,35.14
2018-08-04T12:05:25.183Z,34.56
2018-08-04T12:07:52.280Z,34.82
2018-08-04T12:10:19.439Z,35.87
2018-08-04T12:12:46.812Z,36.12
2018-08-04T12:15:13.965Z,34.90
2018-08-04T12:17:41.074Z,34.51
2018-08-04T12:20:08.993Z,34.03
2018-08-04T12:22:36.125Z,34.09
2018-08-04T12:25:03.898Z,34.00
2018-08-04T12:27:31.096Z,33.29
2018-08-04T12:29:58.242Z,33.07
2018-08-04T12:32:25.476Z,33.18
2018-08-04T12:34:52.562Z,33.15
2018-08-04T12:37:19.797Z,33.02
2018-08-04T12:39:46.958Z,31.46
2018-08-04T12:42:14.211Z,33.02
2018-08-04T12:44:41.304Z,33.93
2018-08-04T12:47:08.409Z,32.77
2018-08-04T12:49:35.556Z,32.89
2018-08-04T12:52:02.700Z,32.91
2018-08-04T12:54:29.917Z,32.86
2018-08-04T12:56:57.048Z,31.48
2018-08-04T12:59:24.188Z,32.80
2018-08-04T13:01:51.398Z,30.44
2018-08-04T13:04:18.537Z,30.67
2018-08-04T13:06:45.665Z,30.02
2018-08-04T13:09:12.801Z,31.00
2018-08-04T13:11:39.918Z,30.69
2018-08-04T13:14:07.115Z,32.29
2018-08-04T13:16:34.337Z,31.78
2018-08-04T13:19:01.618Z,31.28
2018-08-04T13:21:28.988Z,31.98
2018-08-04T13:23:56.119Z,32.68
2018-08-04T13:26:23.315Z,36.13
2018-08-04T13:28:50.501Z,34.00
2018-08-04T13:31:17.736Z,34.96
2018-08-04T13:33:44.989Z,33.29
2018-08-04T13:36:12.205Z,39.66
2018-08-04T13:38:39.458Z,39.09
2018-08-04T13:41:06.740Z,40.82
2018-08-04T13:43:33.908Z,41.47
2018-08-04T13:46:01.066Z,44.56
2018-08-04T13:48:28.268Z,46.61
2018-08-04T13:50:55.494Z,48.52
2018-08-04T13:53:22.656Z,46.49
2018-08-04T13:55:49.782Z,46.68
2018-08-04T13:58:16.945Z,45.92
2018-08-04T14:00:44.141Z,48.40
2018-08-04T14:03:11.356Z,49.51
2018-08-04T14:05:38.467Z,53.54
2018-08-04T14:08:05.659Z,53.99
2018-08-04T14:10:32.816Z,53.67
2018-08-04T14:13:00.037Z,53.74
2018-08-04T14:15:27.241Z,55.42
2018-08-04T14:17:54.401Z,55.35
2018-08-04T14:20:21.559Z,57.37
2018-08-04T14:22:48.748Z,57.97
2018-08-04T14:25:15.920Z,58.90
2018-08-04T14:27:43.123Z,58.96
2018-08-04T14:30:10.678Z,59.07
2018-08-04T14:32:37.861Z,58.72
2018-08-04T14:35:05.491Z,60.24
2018-08-04T14:37:33.017Z,60.40
2018-08-04T14:40:00.151Z,60.94
2018-08-04T14:42:27.344Z,55.25
2018-08-04T14:44:54.499Z,53.28
2018-08-04T14:47:21.684Z,50.62
2018-08-04T14:49:48.864Z,49.68
2018-08-04T14:52:16.072Z,48.61
2018-08-04T14:54:43.300Z,48.21
2018-08-04T14:57:10.498Z,48.49
2018-08-04T14:59:37.636Z,49.86
2018-08-04T15:02:05.847Z,51.46
2018-08-04T15:04:32.975Z,53.98
2018-08-04T15:07:00.162Z,54.60
2018-08-04T15:09:27.292Z,54.86
2018-08-04T15:11:54.423Z,55.55
2018-08-04T15:14:21.714Z,55.83
2018-08-04T15:16:48.894Z,56.37
2018-08-04T15:19:16.061Z,58.36
2018-08-04T15:21:43.264Z,70.64
2018-08-04T15:24:10.349Z,75.21
2018-08-04T15:26:37.484Z,77.15
2018-08-04T15:29:04.632Z,74.81
2018-08-04T15:31:31.763Z,74.07
2018-08-04T15:33:58.951Z,73.79
2018-08-04T15:36:26.093Z,73.81
2018-08-04T15:38:53.372Z,75.53
2018-08-04T15:41:20.527Z,74.62
2018-08-04T15:43:47.670Z,76.36
2018-08-04T15:46:14.808Z,74.50
2018-08-04T15:48:41.962Z,76.04
2018-08-04T15:51:09.096Z,75.46
2018-08-04T15:53:36.320Z,78.90
2018-08-04T15:56:03.512Z,83.21
2018-08-04T15:58:30.625Z,78.35
2018-08-04T16:00:57.760Z,79.48
2018-08-04T16:03:24.901Z,76.31
2018-08-04T16:05:52.049Z,77.16
2018-08-04T16:08:19.247Z,78.17
2018-08-04T16:10:46.364Z,75.94
2018-08-04T16:13:13.520Z,80.40
2018-08-04T16:15:40.704Z,78.69
2018-08-04T16:18:07.861Z,76.98
2018-08-04T16:20:35.012Z,77.91
2018-08-04T16:23:02.125Z,81.04
2018-08-04T16:25:29.250Z,77.50
2018-08-04T16:27:56.373Z,76.56
2018-08-04T16:30:23.536Z,77.86
2018-08-04T16:32:50.691Z,76.31
2018-08-04T16:35:17.849Z,78.07
2018-08-04T16:37:45.144Z,77.89
2018-08-04T16:40:12.272Z,76.48
2018-08-04T16:42:39.419Z,76.80
2018-08-04T16:45:06.540Z,77.03
2018-08-04T16:47:33.697Z,78.56
2018-08-04T16:50:00.843Z,77.00
2018-08-04T16:52:27.953Z,76.39
2018-08-04T16:54:55.088Z,76.60
2018-08-04T16:57:22.277Z,76.83
2018-08-04T16:59:49.452Z,77.35
2018-08-04T17:02:16.608Z,76.64
2018-08-04T17:04:43.767Z,77.91
2018-08-04T17:07:10.968Z,77.73
2018-08-04T17:09:38.126Z,77.54
2018-08-04T17:12:05.252Z,76.31
2018-08-04T17:14:32.404Z,75.63
2018-08-04T17:16:59.535Z,75.25
2018-08-04T17:19:26.664Z,74.56
2018-08-04T17:21:53.950Z,73.87
2018-08-04T17:24:21.132Z,72.68
2018-08-04T17:26:48.304Z,73.67
2018-08-04T17:29:15.408Z,72.18
2018-08-04T17:31:42.601Z,72.55
2018-08-04T17:34:09.707Z,72.26
2018-08-04T17:36:36.916Z,72.12
2018-08-04T17:39:06.476Z,71.69
2018-08-04T17:41:33.608Z,71.02
2018-08-04T17:44:00.720Z,71.13
2018-08-04T17:46:27.848Z,71.19
2018-08-04T17:48:55.010Z,70.97
2018-08-04T17:51:22.174Z,70.63
2018-08-04T17:53:49.325Z,76.55
2018-08-04T17:56:16.469Z,73.03
2018-08-04T17:58:50.525Z,71.89
2018-08-04T18:01:17.724Z,72.26
2018-08-04T18:03:44.932Z,70.09
2018-08-04T18:06:12.057Z,70.24
2018-08-04T18:08:39.181Z,69.67
2018-08-04T18:11:06.423Z,68.26
2018-08-04T18:13:33.580Z,69.52
2018-08-04T18:16:01.675Z,71.31
2018-08-04T18:18:28.823Z,70.13
2018-08-04T18:20:55.959Z,71.29
2018-08-04T18:23:23.178Z,71.56
2018-08-04T18:25:50.260Z,75.61
2018-08-04T18:28:17.432Z,75.73
2018-08-04T18:30:44.572Z,74.91
2018-08-04T18:33:11.716Z,74.00
2018-08-04T18:35:38.896Z,74.12
2018-08-04T18:38:06.252Z,73.77
2018-08-04T18:40:33.445Z,73.12
2018-08-04T18:43:00.590Z,72.49
2018-08-04T18:45:27.745Z,72.42
2018-08-04T18:47:54.986Z,71.93
2018-08-04T18:50:22.153Z,72.69
2018-08-04T18:52:49.306Z,75.47
2018-08-04T18:55:16.461Z,77.79
2018-08-04T18:57:43.648Z,76.56
2018-08-04T19:00:10.840Z,75.82
2018-08-04T19:02:37.958Z,74.17
2018-08-04T19:05:05.199Z,75.27
2018-08-04T19:07:32.352Z,75.07
2018-08-04T19:09:59.461Z,75.80
2018-08-04T19:12:26.623Z,81.58
2018-08-04T19:14:53.851Z,81.29
2018-08-04T19:17:21.025Z,80.86
2018-08-04T19:19:48.143Z,79.99
2018-08-04T19:22:15.664Z,79.59
2018-08-04T19:24:42.786Z,79.45
2018-08-04T19:27:09.945Z,80.75
2018-08-04T19:29:37.077Z,80.72
2018-08-04T19:32:05.184Z,80.15
2018-08-04T19:34:32.305Z,80.07
2018-08-04T19:37:00.274Z,81.52
2018-08-04T19:39:27.423Z,79.43
2018-08-04T19:41:54.564Z,79.83
2018-08-04T19:44:21.681Z,79.97
2018-08-04T19:46:48.867Z,81.31
2018-08-04T19:49:15.992Z,82.62
2018-08-04T19:51:43.365Z,83.37
2018-08-04T19:54:10.534Z,82.74
2018-08-04T19:56:37.705Z,81.51
2018-08-04T19:59:05.081Z,81.24
2018-08-04T20:01:32.244Z,80.65
2018-08-04T20:03:59.409Z,82.07
2018-08-04T20:06:26.532Z,83.34
2018-08-04T20:08:53.705Z,83.89
2018-08-04T20:11:20.877Z,84.53
2018-08-04T20:13:48.309Z,83.12
2018-08-04T20:16:15.469Z,82.98
2018-08-04T20:18:42.651Z,82.37
2018-08-04T20:21:09.784Z,83.41
2018-08-04T20:23:36.960Z,85.05
2018-08-04T20:26:04.136Z,86.77
2018-08-04T20:28:31.313Z,86.98
2018-08-04T20:30:58.480Z,88.33
2018-08-04T20:33:25.658Z,86.51
2018-08-04T20:35:52.836Z,86.21
2018-08-04T20:38:20.078Z,85.75
2018-08-04T20:40:47.267Z,84.67
2018-08-04T20:43:14.475Z,84.35
2018-08-04T20:45:41.653Z,85.82
2018-08-04T20:48:08.792Z,87.08
2018-08-04T20:50:35.947Z,86.73
2018-08-04T20:53:03.623Z,86.60
2018-08-04T20:55:30.783Z,85.56
2018-08-04T20:57:57.971Z,85.35
2018-08-04T21:00:25.644Z,85.73
2018-08-04T21:02:52.752Z,86.64
2018-08-04T21:05:19.997Z,87.48
2018-08-04T21:07:47.130Z,87.76
2018-08-04T21:10:14.272Z,86.51
2018-08-04T21:12:41.412Z,85.39
2018-08-04T21:15:08.568Z,85.39
2018-08-04T21:17:35.722Z,85.16
2018-08-04T21:20:03.857Z,87.30
2018-08-04T21:22:30.986Z,89.14
2018-08-04T21:24:58.104Z,89.35
2018-08-04T21:27:25.287Z,88.20
2018-08-04T21:29:52.431Z,87.61
2018-08-04T21:32:19.589Z,87.65
2018-08-04T21:34:46.770Z,86.89
2018-08-04T21:37:13.897Z,88.41
2018-08-04T21:39:41.059Z,88.47
2018-08-04T21:42:08.207Z,86.74
2018-08-04T21:44:42.069Z,86.24
2018-08-04T21:47:09.201Z,86.84
2018-08-04T21:49:36.305Z,88.85
2018-08-04T21:52:03.484Z,89.09
2018-08-04T21:54:30.644Z,88.14
2018-08-04T21:56:57.771Z,86.91
2018-08-04T21:59:24.919Z,86.94
2018-08-04T22:01:53.021Z,86.48
2018-08-04T22:04:20.110Z,87.39
2018-08-04T22:07:56.381Z,88.77
2018-08-04T22:10:23.554Z,90.14
2018-08-04T22:12:50.746Z,88.83
2018-08-04T22:15:17.936Z,88.29
2018-08-04T22:17:45.056Z,87.08
2018-08-04T22:20:13.450Z,86.99
2018-08-04T22:22:41.005Z,87.07
2018-08-04T22:25:10.229Z,86.94
2018-08-04T22:27:37.398Z,87.59
2018-08-04T22:30:05.852Z,87.35
2018-08-04T22:32:33.057Z,87.56
2018-08-04T22:35:00.229Z,90.14
2018-08-04T22:37:27.493Z,91.65
2018-08-04T22:39:54.629Z,89.16
2018-08-04T22:42:21.709Z,88.96
2018-08-04T22:46:11.989Z,87.26
2018-08-04T22:48:39.619Z,90.05
2018-08-04T22:51:06.806Z,90.61
2018-08-04T22:53:34.297Z,89.20
2018-08-04T22:56:01.409Z,88.88
2018-08-04T22:58:28.541Z,89.47
2018-08-04T23:00:55.724Z,89.93
2018-08-04T23:03:22.880Z,90.07
2018-08-04T23:05:49.993Z,91.00
2018-08-04T23:08:17.128Z,90.03
2018-08-04T23:10:44.508Z,91.24
2018-08-04T23:13:12.109Z,89.87
2018-08-04T23:15:39.276Z,89.94
2018-08-04T23:18:06.648Z,88.67
2018-08-04T23:20:33.817Z,88.78
2018-08-04T23:23:00.971Z,88.10
2018-08-04T23:25:35.130Z,89.17
2018-08-04T23:28:02.295Z,90.78
2018-08-04T23:30:29.476Z,91.84
2018-08-04T23:32:56.673Z,90.97
2018-08-04T23:35:24.884Z,91.08
2018-08-04T23:37:52.191Z,91.08
2018-08-04T23:40:19.843Z,89.97
2018-08-04T23:42:47.000Z,89.40
2018-08-04T23:45:14.248Z,91.45
2018-08-04T23:47:41.451Z,91.98
2018-08-04T23:50:08.709Z,93.73
2018-08-04T23:52:35.855Z,91.73
2018-08-04T23:55:03.898Z,91.02
2018-08-04T23:57:31.052Z,93.14
2018-08-04T23:59:58.215Z,93.52
